sensor_id;sensor_type;location;lat;lon;timestamp;P1;durP1;ratioP1;P2;durP2;ratioP2
5052;SDS011;2545;50.892;5.740;2024-01-30T00:00:02;16.63;;;8.27;;
5052;SDS011;2545;50.892;5.740;2024-01-30T00:02:28;15.57;;;8.40;;
5052;SDS011;2545;50.892;5.740;2024-01-30T00:04:54;11.10;;;8.10;;
5052;SDS011;2545;50.892;5.740;2024-01-30T00:07:21;14.60;;;8.20;;
5052;SDS011;2545;50.892;5.740;2024-01-30T00:09:46;13.20;;;8.00;;
5052;SDS011;2545;50.892;5.740;2024-01-30T00:12:13;14.20;;;8.17;;
5052;SDS011;2545;50.892;5.740;2024-01-30T00:14:41;16.77;;;8.60;;
5052;SDS011;2545;50.892;5.740;2024-01-30T00:17:08;17.70;;;8.23;;
5052;SDS011;2545;50.892;5.740;2024-01-30T00:19:33;11.67;;;7.83;;
5052;SDS011;2545;50.892;5.740;2024-01-30T00:21:58;16.27;;;7.90;;
5052;SDS011;2545;50.892;5.740;2024-01-30T00:24:24;15.50;;;7.87;;
5052;SDS011;2545;50.892;5.740;2024-01-30T00:26:49;15.50;;;7.60;;
5052;SDS011;2545;50.892;5.740;2024-01-30T00:29:14;12.40;;;7.90;;
5052;SDS011;2545;50.892;5.740;2024-01-30T00:31:44;13.10;;;7.77;;
5052;SDS011;2545;50.892;5.740;2024-01-30T00:34:09;13.00;;;8.17;;
5052;SDS011;2545;50.892;5.740;2024-01-30T00:36:35;9.83;;;7.17;;
5052;SDS011;2545;50.892;5.740;2024-01-30T00:39:00;19.93;;;8.50;;
5052;SDS011;2545;50.892;5.740;2024-01-30T00:41:26;17.33;;;8.67;;
5052;SDS011;2545;50.892;5.740;2024-01-30T00:43:51;15.03;;;7.83;;
5052;SDS011;2545;50.892;5.740;2024-01-30T00:46:17;15.93;;;8.03;;
5052;SDS011;2545;50.892;5.740;2024-01-30T00:48:42;10.10;;;7.13;;
5052;SDS011;2545;50.892;5.740;2024-01-30T00:51:08;19.47;;;8.63;;
5052;SDS011;2545;50.892;5.740;2024-01-30T00:53:33;11.83;;;8.10;;
5052;SDS011;2545;50.892;5.740;2024-01-30T00:55:58;17.70;;;7.47;;
5052;SDS011;2545;50.892;5.740;2024-01-30T00:58:25;13.87;;;7.70;;
5052;SDS011;2545;50.892;5.740;2024-01-30T01:00:50;9.30;;;6.80;;
5052;SDS011;2545;50.892;5.740;2024-01-30T01:03:15;11.90;;;8.03;;
5052;SDS011;2545;50.892;5.740;2024-01-30T01:05:41;12.83;;;7.77;;
5052;SDS011;2545;50.892;5.740;2024-01-30T01:08:06;14.80;;;8.20;;
5052;SDS011;2545;50.892;5.740;2024-01-30T01:10:31;14.53;;;7.00;;
5052;SDS011;2545;50.892;5.740;2024-01-30T01:12:57;12.97;;;8.03;;
5052;SDS011;2545;50.892;5.740;2024-01-30T01:15:22;14.80;;;7.33;;
5052;SDS011;2545;50.892;5.740;2024-01-30T01:17:47;11.73;;;7.27;;
5052;SDS011;2545;50.892;5.740;2024-01-30T01:20:12;15.93;;;7.57;;
5052;SDS011;2545;50.892;5.740;2024-01-30T01:22:38;11.10;;;7.00;;
5052;SDS011;2545;50.892;5.740;2024-01-30T01:25:04;12.07;;;7.63;;
5052;SDS011;2545;50.892;5.740;2024-01-30T01:27:32;8.83;;;6.27;;
5052;SDS011;2545;50.892;5.740;2024-01-30T01:29:58;9.33;;;6.20;;
5052;SDS011;2545;50.892;5.740;2024-01-30T01:32:23;9.20;;;6.47;;
5052;SDS011;2545;50.892;5.740;2024-01-30T01:34:48;11.53;;;7.30;;
5052;SDS011;2545;50.892;5.740;2024-01-30T01:37:13;10.90;;;6.37;;
5052;SDS011;2545;50.892;5.740;2024-01-30T01:39:40;12.27;;;6.67;;
5052;SDS011;2545;50.892;5.740;2024-01-30T01:42:07;12.40;;;6.67;;
5052;SDS011;2545;50.892;5.740;2024-01-30T01:44:32;12.03;;;7.27;;
5052;SDS011;2545;50.892;5.740;2024-01-30T01:46:58;11.13;;;6.30;;
5052;SDS011;2545;50.892;5.740;2024-01-30T01:49:27;11.73;;;7.00;;
5052;SDS011;2545;50.892;5.740;2024-01-30T01:51:53;12.77;;;6.53;;
5052;SDS011;2545;50.892;5.740;2024-01-30T01:54:21;18.13;;;7.37;;
5052;SDS011;2545;50.892;5.740;2024-01-30T01:56:47;8.23;;;5.83;;
5052;SDS011;2545;50.892;5.740;2024-01-30T01:59:13;14.90;;;6.20;;
5052;SDS011;2545;50.892;5.740;2024-01-30T02:01:38;9.50;;;5.67;;
5052;SDS011;2545;50.892;5.740;2024-01-30T02:04:06;9.00;;;5.83;;
5052;SDS011;2545;50.892;5.740;2024-01-30T02:06:33;7.93;;;6.10;;
5052;SDS011;2545;50.892;5.740;2024-01-30T02:08:59;13.63;;;6.30;;
5052;SDS011;2545;50.892;5.740;2024-01-30T02:11:25;13.50;;;6.00;;
5052;SDS011;2545;50.892;5.740;2024-01-30T02:13:50;8.80;;;5.93;;
5052;SDS011;2545;50.892;5.740;2024-01-30T02:16:16;9.00;;;5.47;;
5052;SDS011;2545;50.892;5.740;2024-01-30T02:18:44;11.53;;;5.90;;
5052;SDS011;2545;50.892;5.740;2024-01-30T02:21:12;8.47;;;5.50;;
5052;SDS011;2545;50.892;5.740;2024-01-30T02:23:39;10.80;;;5.30;;
5052;SDS011;2545;50.892;5.740;2024-01-30T02:26:05;8.60;;;5.93;;
5052;SDS011;2545;50.892;5.740;2024-01-30T02:28:31;9.50;;;5.97;;
5052;SDS011;2545;50.892;5.740;2024-01-30T02:30:56;7.63;;;5.40;;
5052;SDS011;2545;50.892;5.740;2024-01-30T02:33:21;10.10;;;6.13;;
5052;SDS011;2545;50.892;5.740;2024-01-30T02:35:47;8.83;;;5.83;;
5052;SDS011;2545;50.892;5.740;2024-01-30T02:38:13;15.90;;;6.47;;
5052;SDS011;2545;50.892;5.740;2024-01-30T02:40:38;8.33;;;5.90;;
5052;SDS011;2545;50.892;5.740;2024-01-30T02:43:04;10.47;;;5.33;;
5052;SDS011;2545;50.892;5.740;2024-01-30T02:45:30;12.20;;;6.10;;
5052;SDS011;2545;50.892;5.740;2024-01-30T02:47:55;7.87;;;5.77;;
5052;SDS011;2545;50.892;5.740;2024-01-30T02:50:21;7.67;;;5.50;;
5052;SDS011;2545;50.892;5.740;2024-01-30T02:52:46;10.10;;;5.77;;
5052;SDS011;2545;50.892;5.740;2024-01-30T02:55:11;11.33;;;5.70;;
5052;SDS011;2545;50.892;5.740;2024-01-30T02:57:37;15.20;;;5.50;;
5052;SDS011;2545;50.892;5.740;2024-01-30T03:00:03;7.47;;;5.43;;
5052;SDS011;2545;50.892;5.740;2024-01-30T03:02:30;13.90;;;4.90;;
5052;SDS011;2545;50.892;5.740;2024-01-30T03:04:56;6.20;;;4.73;;
5052;SDS011;2545;50.892;5.740;2024-01-30T03:07:21;9.30;;;5.70;;
5052;SDS011;2545;50.892;5.740;2024-01-30T03:09:48;9.60;;;5.77;;
5052;SDS011;2545;50.892;5.740;2024-01-30T03:12:13;9.93;;;5.37;;
5052;SDS011;2545;50.892;5.740;2024-01-30T03:14:38;10.90;;;5.30;;
5052;SDS011;2545;50.892;5.740;2024-01-30T03:17:04;6.70;;;5.10;;
5052;SDS011;2545;50.892;5.740;2024-01-30T03:19:29;11.27;;;4.80;;
5052;SDS011;2545;50.892;5.740;2024-01-30T03:21:54;8.33;;;5.73;;
5052;SDS011;2545;50.892;5.740;2024-01-30T03:24:20;10.13;;;5.43;;
5052;SDS011;2545;50.892;5.740;2024-01-30T03:26:45;5.93;;;5.20;;
5052;SDS011;2545;50.892;5.740;2024-01-30T03:29:11;9.13;;;4.93;;
5052;SDS011;2545;50.892;5.740;2024-01-30T03:31:36;7.67;;;5.20;;
5052;SDS011;2545;50.892;5.740;2024-01-30T03:34:01;10.07;;;6.40;;
5052;SDS011;2545;50.892;5.740;2024-01-30T03:36:27;10.77;;;5.43;;
5052;SDS011;2545;50.892;5.740;2024-01-30T03:38:53;7.20;;;4.90;;
5052;SDS011;2545;50.892;5.740;2024-01-30T03:41:18;7.97;;;4.90;;
5052;SDS011;2545;50.892;5.740;2024-01-30T03:43:44;8.63;;;5.93;;
5052;SDS011;2545;50.892;5.740;2024-01-30T03:46:09;10.00;;;5.30;;
5052;SDS011;2545;50.892;5.740;2024-01-30T03:48:36;8.00;;;4.80;;
5052;SDS011;2545;50.892;5.740;2024-01-30T03:51:02;6.97;;;4.53;;
5052;SDS011;2545;50.892;5.740;2024-01-30T03:53:27;12.97;;;5.50;;
5052;SDS011;2545;50.892;5.740;2024-01-30T03:55:53;7.70;;;4.97;;
5052;SDS011;2545;50.892;5.740;2024-01-30T03:58:19;7.33;;;4.93;;
5052;SDS011;2545;50.892;5.740;2024-01-30T04:00:44;6.33;;;5.03;;
5052;SDS011;2545;50.892;5.740;2024-01-30T04:03:09;7.30;;;4.57;;
5052;SDS011;2545;50.892;5.740;2024-01-30T04:05:35;8.43;;;5.10;;
5052;SDS011;2545;50.892;5.740;2024-01-30T04:08:00;8.57;;;5.20;;
5052;SDS011;2545;50.892;5.740;2024-01-30T04:10:25;9.27;;;5.63;;
5052;SDS011;2545;50.892;5.740;2024-01-30T04:12:51;6.30;;;4.70;;
5052;SDS011;2545;50.892;5.740;2024-01-30T04:15:21;11.93;;;5.40;;
5052;SDS011;2545;50.892;5.740;2024-01-30T04:17:46;7.57;;;4.60;;
5052;SDS011;2545;50.892;5.740;2024-01-30T04:20:14;12.93;;;4.80;;
5052;SDS011;2545;50.892;5.740;2024-01-30T04:22:42;6.50;;;4.23;;
5052;SDS011;2545;50.892;5.740;2024-01-30T04:25:11;9.47;;;5.87;;
5052;SDS011;2545;50.892;5.740;2024-01-30T04:27:37;6.30;;;4.27;;
5052;SDS011;2545;50.892;5.740;2024-01-30T04:30:03;9.43;;;5.60;;
5052;SDS011;2545;50.892;5.740;2024-01-30T04:32:30;8.13;;;5.03;;
5052;SDS011;2545;50.892;5.740;2024-01-30T04:34:55;12.37;;;4.37;;
5052;SDS011;2545;50.892;5.740;2024-01-30T04:37:21;10.43;;;5.37;;
5052;SDS011;2545;50.892;5.740;2024-01-30T04:39:46;6.30;;;4.93;;
5052;SDS011;2545;50.892;5.740;2024-01-30T04:42:11;9.83;;;4.90;;
5052;SDS011;2545;50.892;5.740;2024-01-30T04:44:37;7.70;;;5.27;;
5052;SDS011;2545;50.892;5.740;2024-01-30T04:47:02;8.70;;;5.30;;
5052;SDS011;2545;50.892;5.740;2024-01-30T04:49:28;5.47;;;4.77;;
5052;SDS011;2545;50.892;5.740;2024-01-30T04:51:54;9.93;;;5.00;;
5052;SDS011;2545;50.892;5.740;2024-01-30T04:54:19;10.57;;;5.50;;
5052;SDS011;2545;50.892;5.740;2024-01-30T04:56:45;5.97;;;4.47;;
5052;SDS011;2545;50.892;5.740;2024-01-30T04:59:10;9.17;;;5.20;;
5052;SDS011;2545;50.892;5.740;2024-01-30T05:01:35;6.80;;;4.97;;
5052;SDS011;2545;50.892;5.740;2024-01-30T05:04:00;10.00;;;4.73;;
5052;SDS011;2545;50.892;5.740;2024-01-30T05:06:27;7.43;;;4.43;;
5052;SDS011;2545;50.892;5.740;2024-01-30T05:08:53;9.27;;;5.37;;
5052;SDS011;2545;50.892;5.740;2024-01-30T05:11:18;5.90;;;4.27;;
5052;SDS011;2545;50.892;5.740;2024-01-30T05:13:44;10.97;;;3.97;;
5052;SDS011;2545;50.892;5.740;2024-01-30T05:16:09;7.00;;;4.10;;
5052;SDS011;2545;50.892;5.740;2024-01-30T05:18:35;8.37;;;4.70;;
5052;SDS011;2545;50.892;5.740;2024-01-30T05:21:00;8.83;;;4.67;;
5052;SDS011;2545;50.892;5.740;2024-01-30T05:23:26;7.63;;;4.67;;
5052;SDS011;2545;50.892;5.740;2024-01-30T05:25:53;6.70;;;4.50;;
5052;SDS011;2545;50.892;5.740;2024-01-30T05:28:18;6.40;;;4.97;;
5052;SDS011;2545;50.892;5.740;2024-01-30T05:30:44;7.23;;;5.17;;
5052;SDS011;2545;50.892;5.740;2024-01-30T05:33:09;13.83;;;4.53;;
5052;SDS011;2545;50.892;5.740;2024-01-30T05:35:37;8.30;;;5.57;;
5052;SDS011;2545;50.892;5.740;2024-01-30T05:38:02;7.60;;;4.80;;
5052;SDS011;2545;50.892;5.740;2024-01-30T05:40:27;7.27;;;4.70;;
5052;SDS011;2545;50.892;5.740;2024-01-30T05:42:54;11.13;;;5.20;;
5052;SDS011;2545;50.892;5.740;2024-01-30T05:45:19;6.97;;;4.80;;
5052;SDS011;2545;50.892;5.740;2024-01-30T05:47:45;14.10;;;6.50;;
5052;SDS011;2545;50.892;5.740;2024-01-30T05:50:10;10.50;;;5.23;;
5052;SDS011;2545;50.892;5.740;2024-01-30T05:52:37;8.10;;;4.97;;
5052;SDS011;2545;50.892;5.740;2024-01-30T05:55:02;7.10;;;4.33;;
5052;SDS011;2545;50.892;5.740;2024-01-30T05:57:28;11.33;;;5.70;;
5052;SDS011;2545;50.892;5.740;2024-01-30T05:59:53;12.23;;;4.87;;
5052;SDS011;2545;50.892;5.740;2024-01-30T06:02:18;13.27;;;5.10;;
5052;SDS011;2545;50.892;5.740;2024-01-30T06:04:45;11.70;;;4.73;;
5052;SDS011;2545;50.892;5.740;2024-01-30T06:07:10;15.33;;;5.37;;
5052;SDS011;2545;50.892;5.740;2024-01-30T06:09:35;8.47;;;6.20;;
5052;SDS011;2545;50.892;5.740;2024-01-30T06:12:01;10.10;;;6.07;;
5052;SDS011;2545;50.892;5.740;2024-01-30T06:14:26;10.57;;;6.10;;
5052;SDS011;2545;50.892;5.740;2024-01-30T06:16:51;9.63;;;5.00;;
5052;SDS011;2545;50.892;5.740;2024-01-30T06:19:17;6.47;;;4.27;;
5052;SDS011;2545;50.892;5.740;2024-01-30T06:21:42;7.63;;;5.50;;
5052;SDS011;2545;50.892;5.740;2024-01-30T06:24:07;8.50;;;5.17;;
5052;SDS011;2545;50.892;5.740;2024-01-30T06:26:33;8.53;;;5.70;;
5052;SDS011;2545;50.892;5.740;2024-01-30T06:28:59;9.00;;;4.90;;
5052;SDS011;2545;50.892;5.740;2024-01-30T06:31:27;9.13;;;5.27;;
5052;SDS011;2545;50.892;5.740;2024-01-30T06:33:53;12.30;;;6.37;;
5052;SDS011;2545;50.892;5.740;2024-01-30T06:36:18;14.63;;;5.80;;
5052;SDS011;2545;50.892;5.740;2024-01-30T06:38:43;7.33;;;5.30;;
5052;SDS011;2545;50.892;5.740;2024-01-30T06:41:09;11.47;;;5.50;;
5052;SDS011;2545;50.892;5.740;2024-01-30T06:43:34;8.30;;;4.70;;
5052;SDS011;2545;50.892;5.740;2024-01-30T06:45:59;8.23;;;4.80;;
5052;SDS011;2545;50.892;5.740;2024-01-30T06:48:25;11.23;;;6.50;;
5052;SDS011;2545;50.892;5.740;2024-01-30T06:50:52;8.90;;;5.67;;
5052;SDS011;2545;50.892;5.740;2024-01-30T06:53:18;8.40;;;5.33;;
5052;SDS011;2545;50.892;5.740;2024-01-30T06:55:44;11.70;;;5.83;;
5052;SDS011;2545;50.892;5.740;2024-01-30T06:58:10;7.03;;;5.23;;
5052;SDS011;2545;50.892;5.740;2024-01-30T07:00:36;7.60;;;5.47;;
5052;SDS011;2545;50.892;5.740;2024-01-30T07:03:01;12.63;;;4.97;;
5052;SDS011;2545;50.892;5.740;2024-01-30T07:05:27;8.60;;;5.80;;
5052;SDS011;2545;50.892;5.740;2024-01-30T07:07:52;8.23;;;5.40;;
5052;SDS011;2545;50.892;5.740;2024-01-30T07:10:17;12.23;;;6.30;;
5052;SDS011;2545;50.892;5.740;2024-01-30T07:12:43;9.87;;;5.90;;
5052;SDS011;2545;50.892;5.740;2024-01-30T07:15:08;9.30;;;5.00;;
5052;SDS011;2545;50.892;5.740;2024-01-30T07:17:35;7.27;;;5.90;;
5052;SDS011;2545;50.892;5.740;2024-01-30T07:20:02;10.07;;;6.33;;
5052;SDS011;2545;50.892;5.740;2024-01-30T07:22:29;10.70;;;5.50;;
5052;SDS011;2545;50.892;5.740;2024-01-30T07:24:55;9.10;;;6.37;;
5052;SDS011;2545;50.892;5.740;2024-01-30T07:27:20;11.30;;;6.23;;
5052;SDS011;2545;50.892;5.740;2024-01-30T07:29:46;17.50;;;5.90;;
5052;SDS011;2545;50.892;5.740;2024-01-30T07:32:11;8.57;;;5.30;;
5052;SDS011;2545;50.892;5.740;2024-01-30T07:34:38;7.00;;;5.63;;
5052;SDS011;2545;50.892;5.740;2024-01-30T07:37:04;8.93;;;5.13;;
5052;SDS011;2545;50.892;5.740;2024-01-30T07:39:29;9.03;;;4.70;;
5052;SDS011;2545;50.892;5.740;2024-01-30T07:41:54;11.57;;;6.10;;
5052;SDS011;2545;50.892;5.740;2024-01-30T07:44:20;15.63;;;6.17;;
5052;SDS011;2545;50.892;5.740;2024-01-30T07:46:45;18.37;;;5.40;;
5052;SDS011;2545;50.892;5.740;2024-01-30T07:49:11;15.70;;;5.60;;
5052;SDS011;2545;50.892;5.740;2024-01-30T07:51:36;9.97;;;5.53;;
5052;SDS011;2545;50.892;5.740;2024-01-30T07:54:02;12.83;;;6.03;;
5052;SDS011;2545;50.892;5.740;2024-01-30T07:56:27;9.90;;;5.93;;
5052;SDS011;2545;50.892;5.740;2024-01-30T07:58:52;9.93;;;5.33;;
5052;SDS011;2545;50.892;5.740;2024-01-30T08:01:18;10.80;;;5.80;;
5052;SDS011;2545;50.892;5.740;2024-01-30T08:03:43;9.30;;;5.70;;
5052;SDS011;2545;50.892;5.740;2024-01-30T08:06:09;12.30;;;5.70;;
5052;SDS011;2545;50.892;5.740;2024-01-30T08:08:35;21.60;;;5.30;;
5052;SDS011;2545;50.892;5.740;2024-01-30T08:11:00;10.53;;;5.03;;
5052;SDS011;2545;50.892;5.740;2024-01-30T08:13:25;10.47;;;6.13;;
5052;SDS011;2545;50.892;5.740;2024-01-30T08:15:51;9.50;;;5.40;;
5052;SDS011;2545;50.892;5.740;2024-01-30T08:18:16;10.70;;;5.80;;
5052;SDS011;2545;50.892;5.740;2024-01-30T08:20:41;7.80;;;5.10;;
5052;SDS011;2545;50.892;5.740;2024-01-30T08:23:07;9.87;;;5.43;;
5052;SDS011;2545;50.892;5.740;2024-01-30T08:25:32;13.70;;;5.77;;
5052;SDS011;2545;50.892;5.740;2024-01-30T08:27:58;11.30;;;5.47;;
5052;SDS011;2545;50.892;5.740;2024-01-30T08:30:23;12.67;;;5.83;;
5052;SDS011;2545;50.892;5.740;2024-01-30T08:32:48;7.77;;;5.23;;
5052;SDS011;2545;50.892;5.740;2024-01-30T08:35:14;12.23;;;5.90;;
5052;SDS011;2545;50.892;5.740;2024-01-30T08:37:41;9.20;;;6.33;;
5052;SDS011;2545;50.892;5.740;2024-01-30T08:40:07;12.10;;;5.00;;
5052;SDS011;2545;50.892;5.740;2024-01-30T08:42:33;15.33;;;5.87;;
5052;SDS011;2545;50.892;5.740;2024-01-30T08:44:59;10.23;;;5.87;;
5052;SDS011;2545;50.892;5.740;2024-01-30T08:47:24;7.20;;;5.80;;
5052;SDS011;2545;50.892;5.740;2024-01-30T08:49:50;10.03;;;5.80;;
5052;SDS011;2545;50.892;5.740;2024-01-30T08:52:16;11.23;;;6.10;;
5052;SDS011;2545;50.892;5.740;2024-01-30T08:54:41;15.33;;;6.57;;
5052;SDS011;2545;50.892;5.740;2024-01-30T08:57:06;10.70;;;5.50;;
5052;SDS011;2545;50.892;5.740;2024-01-30T08:59:33;11.40;;;5.70;;
5052;SDS011;2545;50.892;5.740;2024-01-30T09:01:58;8.57;;;6.10;;
5052;SDS011;2545;50.892;5.740;2024-01-30T09:04:24;11.60;;;6.20;;
5052;SDS011;2545;50.892;5.740;2024-01-30T09:06:49;13.27;;;6.47;;
5052;SDS011;2545;50.892;5.740;2024-01-30T09:09:15;9.97;;;5.93;;
5052;SDS011;2545;50.892;5.740;2024-01-30T09:11:41;13.67;;;7.30;;
5052;SDS011;2545;50.892;5.740;2024-01-30T09:14:06;14.70;;;6.63;;
5052;SDS011;2545;50.892;5.740;2024-01-30T09:16:31;15.13;;;6.80;;
5052;SDS011;2545;50.892;5.740;2024-01-30T09:18:57;7.40;;;5.73;;
5052;SDS011;2545;50.892;5.740;2024-01-30T09:21:22;13.00;;;6.67;;
5052;SDS011;2545;50.892;5.740;2024-01-30T09:23:48;9.90;;;5.80;;
5052;SDS011;2545;50.892;5.740;2024-01-30T09:26:13;11.20;;;6.93;;
5052;SDS011;2545;50.892;5.740;2024-01-30T09:28:38;10.53;;;6.07;;
5052;SDS011;2545;50.892;5.740;2024-01-30T09:31:04;13.03;;;6.73;;
5052;SDS011;2545;50.892;5.740;2024-01-30T09:33:29;10.83;;;6.67;;
5052;SDS011;2545;50.892;5.740;2024-01-30T09:35:54;10.37;;;6.27;;
5052;SDS011;2545;50.892;5.740;2024-01-30T09:38:20;14.77;;;6.60;;
5052;SDS011;2545;50.892;5.740;2024-01-30T09:40:46;10.20;;;6.13;;
5052;SDS011;2545;50.892;5.740;2024-01-30T09:43:18;11.07;;;6.17;;
5052;SDS011;2545;50.892;5.740;2024-01-30T09:45:48;9.23;;;5.50;;
5052;SDS011;2545;50.892;5.740;2024-01-30T09:48:15;11.27;;;5.67;;
5052;SDS011;2545;50.892;5.740;2024-01-30T09:50:41;11.50;;;6.67;;
5052;SDS011;2545;50.892;5.740;2024-01-30T09:53:07;10.80;;;6.47;;
5052;SDS011;2545;50.892;5.740;2024-01-30T09:55:33;24.37;;;6.30;;
5052;SDS011;2545;50.892;5.740;2024-01-30T09:58:00;10.80;;;6.10;;
5052;SDS011;2545;50.892;5.740;2024-01-30T10:00:26;12.30;;;6.93;;
5052;SDS011;2545;50.892;5.740;2024-01-30T10:02:52;9.77;;;6.07;;
5052;SDS011;2545;50.892;5.740;2024-01-30T10:05:18;9.93;;;5.53;;
5052;SDS011;2545;50.892;5.740;2024-01-30T10:07:53;10.00;;;5.43;;
5052;SDS011;2545;50.892;5.740;2024-01-30T10:10:22;14.70;;;6.37;;
5052;SDS011;2545;50.892;5.740;2024-01-30T10:12:52;9.40;;;5.90;;
5052;SDS011;2545;50.892;5.740;2024-01-30T10:15:19;20.30;;;6.30;;
5052;SDS011;2545;50.892;5.740;2024-01-30T10:17:44;10.23;;;6.07;;
5052;SDS011;2545;50.892;5.740;2024-01-30T10:20:10;14.03;;;6.47;;
5052;SDS011;2545;50.892;5.740;2024-01-30T10:22:36;20.43;;;6.17;;
5052;SDS011;2545;50.892;5.740;2024-01-30T10:25:01;9.83;;;5.33;;
5052;SDS011;2545;50.892;5.740;2024-01-30T10:27:27;8.93;;;6.43;;
5052;SDS011;2545;50.892;5.740;2024-01-30T10:29:54;23.37;;;6.90;;
5052;SDS011;2545;50.892;5.740;2024-01-30T10:32:20;10.10;;;5.93;;
5052;SDS011;2545;50.892;5.740;2024-01-30T10:34:46;16.93;;;6.53;;
5052;SDS011;2545;50.892;5.740;2024-01-30T10:37:12;13.43;;;6.60;;
5052;SDS011;2545;50.892;5.740;2024-01-30T10:39:40;13.50;;;6.53;;
5052;SDS011;2545;50.892;5.740;2024-01-30T10:42:07;14.70;;;5.87;;
5052;SDS011;2545;50.892;5.740;2024-01-30T10:47:26;16.73;;;6.50;;
5052;SDS011;2545;50.892;5.740;2024-01-30T10:49:52;19.13;;;6.67;;
5052;SDS011;2545;50.892;5.740;2024-01-30T10:52:19;11.70;;;6.20;;
5052;SDS011;2545;50.892;5.740;2024-01-30T10:54:45;12.93;;;7.00;;
5052;SDS011;2545;50.892;5.740;2024-01-30T10:57:12;12.80;;;6.77;;
5052;SDS011;2545;50.892;5.740;2024-01-30T10:59:40;10.43;;;5.73;;
5052;SDS011;2545;50.892;5.740;2024-01-30T11:02:07;22.47;;;6.53;;
5052;SDS011;2545;50.892;5.740;2024-01-30T11:04:37;13.87;;;6.50;;
5052;SDS011;2545;50.892;5.740;2024-01-30T11:07:16;9.90;;;6.60;;
5052;SDS011;2545;50.892;5.740;2024-01-30T11:09:59;11.43;;;6.03;;
5052;SDS011;2545;50.892;5.740;2024-01-30T11:12:28;16.53;;;6.90;;
5052;SDS011;2545;50.892;5.740;2024-01-30T11:15:13;11.00;;;6.53;;
5052;SDS011;2545;50.892;5.740;2024-01-30T11:20:30;14.23;;;7.80;;
5052;SDS011;2545;50.892;5.740;2024-01-30T11:22:56;13.83;;;7.00;;
5052;SDS011;2545;50.892;5.740;2024-01-30T11:25:23;13.40;;;6.27;;
5052;SDS011;2545;50.892;5.740;2024-01-30T11:27:50;15.60;;;7.13;;
5052;SDS011;2545;50.892;5.740;2024-01-30T11:30:22;9.93;;;6.10;;
5052;SDS011;2545;50.892;5.740;2024-01-30T11:35:32;24.60;;;7.67;;
5052;SDS011;2545;50.892;5.740;2024-01-30T11:37:58;11.03;;;6.17;;
5052;SDS011;2545;50.892;5.740;2024-01-30T11:40:26;13.57;;;7.63;;
5052;SDS011;2545;50.892;5.740;2024-01-30T11:42:54;12.50;;;7.13;;
5052;SDS011;2545;50.892;5.740;2024-01-30T11:45:20;12.83;;;6.10;;
5052;SDS011;2545;50.892;5.740;2024-01-30T11:47:45;10.27;;;6.77;;
5052;SDS011;2545;50.892;5.740;2024-01-30T11:50:11;13.23;;;6.53;;
5052;SDS011;2545;50.892;5.740;2024-01-30T11:52:37;12.97;;;7.37;;
5052;SDS011;2545;50.892;5.740;2024-01-30T11:55:02;13.67;;;7.10;;
5052;SDS011;2545;50.892;5.740;2024-01-30T11:57:28;25.33;;;6.93;;
5052;SDS011;2545;50.892;5.740;2024-01-30T11:59:54;11.60;;;6.90;;
5052;SDS011;2545;50.892;5.740;2024-01-30T12:02:19;16.80;;;8.37;;
5052;SDS011;2545;50.892;5.740;2024-01-30T12:04:46;12.13;;;7.30;;
5052;SDS011;2545;50.892;5.740;2024-01-30T12:07:11;16.00;;;7.37;;
5052;SDS011;2545;50.892;5.740;2024-01-30T12:09:40;12.80;;;7.17;;
5052;SDS011;2545;50.892;5.740;2024-01-30T12:12:06;16.60;;;7.80;;
5052;SDS011;2545;50.892;5.740;2024-01-30T12:14:32;15.97;;;7.80;;
5052;SDS011;2545;50.892;5.740;2024-01-30T12:16:58;18.10;;;7.97;;
5052;SDS011;2545;50.892;5.740;2024-01-30T12:19:24;18.83;;;7.70;;
5052;SDS011;2545;50.892;5.740;2024-01-30T12:21:56;15.83;;;8.23;;
5052;SDS011;2545;50.892;5.740;2024-01-30T12:24:26;15.07;;;8.30;;
5052;SDS011;2545;50.892;5.740;2024-01-30T12:26:56;17.67;;;7.73;;
5052;SDS011;2545;50.892;5.740;2024-01-30T12:29:21;13.30;;;8.23;;
5052;SDS011;2545;50.892;5.740;2024-01-30T12:31:47;11.13;;;7.13;;
5052;SDS011;2545;50.892;5.740;2024-01-30T12:34:16;21.90;;;9.60;;
5052;SDS011;2545;50.892;5.740;2024-01-30T12:36:42;19.60;;;8.60;;
5052;SDS011;2545;50.892;5.740;2024-01-30T12:39:12;18.33;;;8.63;;
5052;SDS011;2545;50.892;5.740;2024-01-30T12:41:39;16.53;;;8.77;;
5052;SDS011;2545;50.892;5.740;2024-01-30T12:44:05;18.17;;;8.23;;
5052;SDS011;2545;50.892;5.740;2024-01-30T12:46:30;18.63;;;8.10;;
5052;SDS011;2545;50.892;5.740;2024-01-30T12:48:56;11.80;;;8.40;;
5052;SDS011;2545;50.892;5.740;2024-01-30T12:51:21;18.90;;;8.00;;
5052;SDS011;2545;50.892;5.740;2024-01-30T12:53:48;14.13;;;8.20;;
5052;SDS011;2545;50.892;5.740;2024-01-30T12:56:13;19.10;;;8.87;;
5052;SDS011;2545;50.892;5.740;2024-01-30T12:58:40;13.27;;;8.60;;
5052;SDS011;2545;50.892;5.740;2024-01-30T13:01:06;19.03;;;8.90;;
5052;SDS011;2545;50.892;5.740;2024-01-30T13:03:34;16.10;;;8.00;;
5052;SDS011;2545;50.892;5.740;2024-01-30T13:05:59;17.07;;;7.17;;
5052;SDS011;2545;50.892;5.740;2024-01-30T13:08:25;21.20;;;8.20;;
5052;SDS011;2545;50.892;5.740;2024-01-30T13:10:50;16.83;;;8.43;;
5052;SDS011;2545;50.892;5.740;2024-01-30T13:13:16;13.00;;;8.30;;
5052;SDS011;2545;50.892;5.740;2024-01-30T13:15:41;21.60;;;8.70;;
5052;SDS011;2545;50.892;5.740;2024-01-30T13:18:06;25.80;;;10.57;;
5052;SDS011;2545;50.892;5.740;2024-01-30T13:20:32;17.80;;;8.20;;
5052;SDS011;2545;50.892;5.740;2024-01-30T13:22:57;13.53;;;8.57;;
5052;SDS011;2545;50.892;5.740;2024-01-30T13:25:22;14.07;;;7.77;;
5052;SDS011;2545;50.892;5.740;2024-01-30T13:27:48;20.60;;;8.97;;
5052;SDS011;2545;50.892;5.740;2024-01-30T13:30:13;19.10;;;7.87;;
5052;SDS011;2545;50.892;5.740;2024-01-30T13:32:40;13.33;;;8.40;;
5052;SDS011;2545;50.892;5.740;2024-01-30T13:35:09;15.80;;;7.83;;
5052;SDS011;2545;50.892;5.740;2024-01-30T13:37:35;21.53;;;7.70;;
5052;SDS011;2545;50.892;5.740;2024-01-30T13:40:00;15.57;;;7.60;;
5052;SDS011;2545;50.892;5.740;2024-01-30T13:42:26;23.93;;;6.87;;
5052;SDS011;2545;50.892;5.740;2024-01-30T13:44:51;13.63;;;7.13;;
5052;SDS011;2545;50.892;5.740;2024-01-30T13:47:17;16.87;;;7.00;;
5052;SDS011;2545;50.892;5.740;2024-01-30T13:49:43;8.33;;;5.60;;
5052;SDS011;2545;50.892;5.740;2024-01-30T13:52:09;18.40;;;7.47;;
5052;SDS011;2545;50.892;5.740;2024-01-30T13:54:34;11.53;;;5.70;;
5052;SDS011;2545;50.892;5.740;2024-01-30T13:56:59;10.97;;;4.30;;
5052;SDS011;2545;50.892;5.740;2024-01-30T13:59:26;8.80;;;4.60;;
5052;SDS011;2545;50.892;5.740;2024-01-30T14:01:51;8.90;;;3.40;;
5052;SDS011;2545;50.892;5.740;2024-01-30T14:04:17;5.60;;;2.87;;
5052;SDS011;2545;50.892;5.740;2024-01-30T14:06:42;8.33;;;3.30;;
5052;SDS011;2545;50.892;5.740;2024-01-30T14:09:08;7.53;;;3.60;;
5052;SDS011;2545;50.892;5.740;2024-01-30T14:11:36;4.60;;;2.90;;
5052;SDS011;2545;50.892;5.740;2024-01-30T14:14:01;7.93;;;3.23;;
5052;SDS011;2545;50.892;5.740;2024-01-30T14:16:28;3.80;;;2.70;;
5052;SDS011;2545;50.892;5.740;2024-01-30T14:18:53;14.97;;;3.37;;
5052;SDS011;2545;50.892;5.740;2024-01-30T14:21:19;8.03;;;2.90;;
5052;SDS011;2545;50.892;5.740;2024-01-30T14:23:44;5.23;;;2.30;;
5052;SDS011;2545;50.892;5.740;2024-01-30T14:26:10;5.07;;;3.43;;
5052;SDS011;2545;50.892;5.740;2024-01-30T14:28:35;7.40;;;3.50;;
5052;SDS011;2545;50.892;5.740;2024-01-30T14:31:00;4.67;;;2.57;;
5052;SDS011;2545;50.892;5.740;2024-01-30T14:33:25;9.10;;;3.37;;
5052;SDS011;2545;50.892;5.740;2024-01-30T14:35:51;13.17;;;2.80;;
5052;SDS011;2545;50.892;5.740;2024-01-30T14:38:16;5.33;;;2.00;;
5052;SDS011;2545;50.892;5.740;2024-01-30T14:40:41;4.43;;;2.57;;
5052;SDS011;2545;50.892;5.740;2024-01-30T14:43:07;4.60;;;2.37;;
5052;SDS011;2545;50.892;5.740;2024-01-30T14:45:32;6.73;;;2.40;;
5052;SDS011;2545;50.892;5.740;2024-01-30T14:47:59;2.30;;;2.10;;
5052;SDS011;2545;50.892;5.740;2024-01-30T14:50:25;18.37;;;3.50;;
5052;SDS011;2545;50.892;5.740;2024-01-30T14:52:51;5.20;;;1.87;;
5052;SDS011;2545;50.892;5.740;2024-01-30T14:55:17;6.80;;;2.27;;
5052;SDS011;2545;50.892;5.740;2024-01-30T14:57:43;2.43;;;1.53;;
5052;SDS011;2545;50.892;5.740;2024-01-30T15:00:10;2.73;;;1.43;;
5052;SDS011;2545;50.892;5.740;2024-01-30T15:02:36;8.53;;;2.20;;
5052;SDS011;2545;50.892;5.740;2024-01-30T15:05:01;1.47;;;1.37;;
5052;SDS011;2545;50.892;5.740;2024-01-30T15:07:27;1.87;;;1.70;;